Terminal Aerodrome Forecast
Issued by NWS Blacksburg, VA

Current Version | Previous Version | Text Only | Print | Product List | Glossary Off
Versions: 1 2 3 4 5 6 7 8 9 10 11 12 13 14 15 16 17 18 19 20 21 22 23 24 25 26 27 28 29 30 31 32 33 34 35 36 37

000
FTUS41 KRNK 301125
TAFBLF
TAF
KBLF 301125Z 3012/3112 19007KT P6SM SCT015 BKN070
     FM301400 22007KT P6SM FEW025 BKN040
     FM302200 20005KT P6SM SCT040 BKN200
     FM310300 23008KT P6SM OVC100=

USA.gov is the U.S. government's official web portal to all federal, state and local government web resources and services.